createdAt,value
2018-06-13T00:01:43.564Z,47.15
2018-06-13T00:04:13.412Z,47.21
2018-06-13T00:06:43.277Z,47.18
2018-06-13T00:09:13.124Z,47.81
2018-06-13T00:11:42.936Z,47.50
2018-06-13T00:14:12.804Z,47.84
2018-06-13T00:16:42.636Z,47.27
2018-06-13T00:19:12.459Z,47.89
2018-06-13T00:21:42.225Z,48.13
2018-06-13T00:24:12.100Z,48.15
2018-06-13T00:26:41.984Z,47.47
2018-06-13T00:29:11.815Z,47.57
2018-06-13T00:31:41.648Z,47.83
2018-06-13T00:34:11.448Z,48.34
2018-06-13T00:36:47.390Z,48.46
2018-06-13T00:39:17.184Z,48.37
2018-06-13T00:41:47.038Z,48.52
2018-06-13T00:44:16.908Z,48.58
2018-06-13T00:46:46.701Z,49.14
2018-06-13T00:49:16.590Z,49.11
2018-06-13T00:51:46.456Z,49.56
2018-06-13T00:54:16.264Z,49.76
2018-06-13T00:56:46.084Z,50.69
2018-06-13T00:59:15.891Z,50.31
2018-06-13T01:01:45.735Z,50.33
2018-06-13T01:04:15.600Z,50.81
2018-06-13T01:06:45.402Z,51.40
2018-06-13T01:09:15.223Z,52.37
2018-06-13T01:11:45.032Z,53.05
2018-06-13T01:14:14.887Z,53.26
2018-06-13T01:16:44.740Z,53.59
2018-06-13T01:19:14.584Z,54.24
2018-06-13T01:21:44.445Z,54.76
2018-06-13T01:24:14.288Z,55.33
2018-06-13T01:26:44.201Z,55.44
2018-06-13T01:29:14.147Z,55.63
2018-06-13T01:31:43.972Z,55.58
2018-06-13T01:34:13.797Z,56.64
2018-06-13T01:36:43.647Z,56.49
2018-06-13T01:39:13.436Z,56.12
2018-06-13T01:41:43.296Z,55.72
2018-06-13T01:44:13.156Z,54.84
2018-06-13T01:46:42.993Z,54.94
2018-06-13T01:49:12.788Z,54.44
2018-06-13T01:51:42.635Z,53.34
2018-06-13T01:54:12.468Z,51.97
2018-06-13T01:56:42.292Z,52.62
2018-06-13T01:59:12.120Z,53.25
2018-06-13T02:01:42.062Z,52.35
2018-06-13T02:04:11.979Z,52.83
2018-06-13T02:06:41.792Z,52.60
2018-06-13T02:09:11.620Z,52.69
2018-06-13T02:11:41.577Z,51.79
2018-06-13T02:14:11.436Z,51.76
2018-06-13T02:16:41.277Z,50.96
2018-06-13T02:19:11.146Z,51.66
2018-06-13T02:21:40.990Z,50.53
2018-06-13T02:24:10.844Z,51.26
2018-06-13T02:26:40.689Z,51.09
2018-06-13T02:29:10.540Z,50.16
2018-06-13T02:31:40.420Z,50.34
2018-06-13T02:34:10.267Z,50.77
2018-06-13T02:36:40.129Z,50.18
2018-06-13T02:39:09.967Z,50.66
2018-06-13T02:41:39.847Z,50.09
2018-06-13T02:44:09.668Z,50.07
2018-06-13T02:46:39.503Z,50.61
2018-06-13T02:49:09.347Z,50.98
2018-06-13T02:51:39.148Z,49.81
2018-06-13T02:54:08.964Z,49.82
2018-06-13T02:56:38.841Z,49.38
2018-06-13T02:59:08.647Z,49.21
2018-06-13T03:01:38.477Z,50.08
2018-06-13T03:04:08.309Z,48.67
2018-06-13T03:06:38.100Z,49.20
2018-06-13T03:09:08.978Z,48.54
2018-06-13T03:11:38.828Z,48.91
2018-06-13T03:14:08.666Z,48.69
2018-06-13T03:16:38.461Z,48.95
2018-06-13T03:19:08.337Z,48.73
2018-06-13T03:21:38.172Z,48.74
2018-06-13T03:24:07.975Z,48.97
2018-06-13T03:26:37.808Z,48.60
2018-06-13T03:29:07.624Z,48.39
2018-06-13T03:31:37.460Z,48.75
2018-06-13T03:34:07.804Z,47.68
2018-06-13T03:36:37.645Z,48.89
2018-06-13T03:39:09.084Z,48.49
2018-06-13T03:41:38.920Z,47.93
2018-06-13T03:44:08.751Z,47.39
2018-06-13T03:46:38.603Z,46.92
2018-06-13T03:49:08.435Z,48.19
2018-06-13T03:51:38.332Z,47.70
2018-06-13T03:54:08.116Z,46.26
2018-06-13T03:56:37.995Z,46.29
2018-06-13T03:59:07.847Z,46.85
2018-06-13T04:01:37.713Z,46.42
2018-06-13T04:04:07.556Z,46.67
2018-06-13T04:06:37.364Z,46.81
2018-06-13T04:09:08.292Z,47.34
2018-06-13T04:11:38.104Z,47.19
2018-06-13T04:14:07.963Z,46.83
2018-06-13T04:16:37.836Z,45.48
2018-06-13T04:19:07.667Z,45.13
2018-06-13T04:21:37.757Z,45.03
2018-06-13T04:24:07.619Z,44.51
2018-06-13T04:26:37.437Z,44.37
2018-06-13T04:29:07.275Z,43.77
2018-06-13T04:31:37.060Z,43.32
2018-06-13T04:34:06.904Z,43.34
2018-06-13T04:36:36.708Z,42.74
2018-06-13T04:39:09.828Z,41.70
2018-06-13T04:41:39.643Z,41.32
2018-06-13T04:44:09.463Z,40.60
2018-06-13T04:46:39.384Z,40.83
2018-06-13T04:49:09.333Z,41.10
2018-06-13T04:51:39.164Z,40.68
2018-06-13T04:54:08.956Z,40.67
2018-06-13T04:56:38.796Z,39.76
2018-06-13T04:59:08.603Z,39.76
2018-06-13T05:01:38.442Z,40.69
2018-06-13T05:04:08.273Z,40.46
2018-06-13T05:06:38.177Z,40.21
2018-06-13T05:09:09.678Z,41.15
2018-06-13T05:11:39.557Z,41.83
2018-06-13T05:14:09.399Z,40.69
2018-06-13T05:16:39.273Z,40.30
2018-06-13T05:19:09.112Z,39.80
2018-06-13T05:21:39.128Z,39.59
2018-06-13T05:24:08.988Z,39.70
2018-06-13T05:26:38.812Z,39.83
2018-06-13T05:29:08.780Z,39.46
2018-06-13T05:31:38.836Z,40.09
2018-06-13T05:34:08.750Z,40.01
2018-06-13T05:36:40.688Z,39.60
2018-06-13T05:39:11.144Z,39.38
2018-06-13T05:41:41.231Z,39.94
2018-06-13T05:44:11.154Z,39.44
2018-06-13T05:46:40.993Z,39.06
2018-06-13T05:49:10.892Z,38.73
2018-06-13T05:51:40.856Z,39.16
2018-06-13T05:54:10.765Z,39.29
2018-06-13T05:56:40.688Z,39.05
2018-06-13T05:59:10.623Z,38.24
2018-06-13T06:01:40.505Z,37.93
2018-06-13T06:04:10.456Z,37.45
2018-06-13T06:06:40.363Z,37.95
2018-06-13T06:09:10.513Z,37.73
2018-06-13T06:11:40.567Z,38.48
2018-06-13T06:14:10.505Z,38.42
2018-06-13T06:16:40.436Z,38.23
2018-06-13T06:19:10.740Z,37.64
2018-06-13T06:21:40.691Z,36.66
2018-06-13T06:24:10.737Z,36.61
2018-06-13T06:26:40.565Z,37.00
2018-06-13T06:29:10.513Z,36.47
2018-06-13T06:31:40.459Z,36.73
2018-06-13T06:34:10.433Z,37.46
2018-06-13T06:36:40.344Z,37.42
2018-06-13T06:39:10.260Z,37.11
2018-06-13T06:41:40.140Z,36.27
2018-06-13T06:44:10.125Z,35.78
2018-06-13T06:46:40.111Z,35.60
2018-06-13T06:49:10.264Z,35.25
2018-06-13T06:51:40.752Z,35.19
2018-06-13T06:54:11.165Z,35.76
2018-06-13T06:56:41.056Z,34.79
2018-06-13T06:59:11.036Z,34.95
2018-06-13T07:01:41.010Z,35.35
2018-06-13T07:04:10.992Z,34.75
2018-06-13T07:06:40.997Z,35.21
2018-06-13T07:09:10.884Z,35.71
2018-06-13T07:11:40.788Z,35.72
2018-06-13T07:14:10.679Z,34.74
2018-06-13T07:16:40.528Z,33.42
2018-06-13T07:19:10.422Z,34.16
2018-06-13T07:21:40.236Z,33.56
2018-06-13T07:24:10.205Z,33.49
2018-06-13T07:26:40.005Z,33.17
2018-06-13T07:29:09.865Z,33.88
2018-06-13T07:31:39.771Z,33.25
2018-06-13T07:34:09.712Z,33.17
2018-06-13T07:36:39.601Z,32.38
2018-06-13T07:39:10.084Z,32.63
2018-06-13T07:41:39.940Z,32.81
2018-06-13T07:44:09.940Z,32.81
2018-06-13T07:46:39.787Z,33.14
2018-06-13T07:49:09.792Z,33.19
2018-06-13T07:51:39.772Z,32.97
2018-06-13T07:54:09.664Z,32.65
2018-06-13T07:56:39.589Z,32.72
2018-06-13T07:59:09.501Z,32.37
2018-06-13T08:01:39.364Z,32.38
2018-06-13T08:04:09.213Z,32.74
2018-06-13T08:06:39.108Z,32.96
2018-06-13T08:09:09.185Z,33.08
2018-06-13T08:11:39.160Z,32.81
2018-06-13T08:14:09.920Z,32.71
2018-06-13T08:16:39.801Z,33.13
2018-06-13T08:19:09.684Z,32.90
2018-06-13T08:21:39.577Z,32.76
2018-06-13T08:24:09.440Z,32.88
2018-06-13T08:26:39.340Z,33.50
2018-06-13T08:29:09.280Z,32.82
2018-06-13T08:31:39.210Z,33.07
2018-06-13T08:34:09.076Z,32.94
2018-06-13T08:36:39.037Z,32.62
2018-06-13T08:39:09.168Z,32.67
2018-06-13T08:41:39.092Z,32.72
2018-06-13T08:44:08.964Z,32.80
2018-06-13T08:46:38.847Z,32.14
2018-06-13T08:49:08.941Z,31.73
2018-06-13T08:51:38.804Z,31.49
2018-06-13T08:54:08.733Z,31.09
2018-06-13T08:56:38.611Z,31.00
2018-06-13T08:59:08.556Z,31.05
2018-06-13T09:01:38.521Z,31.12
2018-06-13T09:04:08.389Z,31.06
2018-06-13T09:06:38.327Z,31.31
2018-06-13T09:09:09.018Z,30.50
2018-06-13T09:11:38.883Z,30.19
2018-06-13T09:14:08.751Z,30.98
2018-06-13T09:16:38.686Z,29.94
2018-06-13T09:19:08.591Z,29.61
2018-06-13T09:21:38.456Z,30.46
2018-06-13T09:24:08.446Z,29.83
2018-06-13T09:26:38.316Z,29.38
2018-06-13T09:29:08.340Z,28.60
2018-06-13T09:31:38.217Z,29.24
2018-06-13T09:34:08.135Z,29.71
2018-06-13T09:36:37.961Z,28.98
2018-06-13T09:39:08.396Z,29.99
2018-06-13T09:41:43.312Z,29.58
2018-06-13T09:44:13.290Z,29.74
2018-06-13T09:46:48.917Z,29.54
2018-06-13T09:49:13.117Z,30.49
2018-06-13T09:51:42.888Z,30.60
2018-06-13T09:54:12.785Z,31.99
2018-06-13T09:56:42.738Z,30.16
2018-06-13T09:59:20.409Z,30.51
2018-06-13T10:01:55.695Z,31.10
2018-06-13T10:04:26.479Z,30.65
2018-06-13T10:06:56.468Z,31.05
2018-06-13T10:09:26.379Z,30.25
2018-06-13T10:11:56.196Z,30.86
2018-06-13T10:14:26.072Z,30.18
2018-06-13T10:16:55.932Z,30.22
2018-06-13T10:19:25.927Z,30.23
2018-06-13T10:21:55.730Z,30.37
2018-06-13T10:24:25.568Z,30.82
2018-06-13T10:26:55.435Z,30.34
2018-06-13T10:29:25.332Z,31.10
2018-06-13T10:31:55.324Z,31.11
2018-06-13T10:34:25.250Z,30.74
2018-06-13T10:36:55.112Z,30.68
2018-06-13T10:39:24.993Z,29.94
2018-06-13T10:41:54.888Z,30.37
2018-06-13T10:44:24.835Z,30.67
2018-06-13T10:46:54.651Z,30.13
2018-06-13T10:49:24.642Z,30.01
2018-06-13T10:51:54.580Z,29.87
2018-06-13T10:54:24.516Z,29.01
2018-06-13T10:56:54.416Z,29.57
2018-06-13T10:59:24.350Z,29.62
2018-06-13T11:01:54.241Z,30.07
2018-06-13T11:04:24.175Z,29.22
2018-06-13T11:06:54.092Z,29.89
2018-06-13T11:09:23.958Z,28.74
2018-06-13T11:11:53.909Z,28.16
2018-06-13T11:14:23.824Z,28.72
2018-06-13T11:16:53.688Z,28.35
2018-06-13T11:19:23.645Z,27.99
2018-06-13T11:21:54.164Z,27.76
2018-06-13T11:24:24.044Z,28.45
2018-06-13T11:26:53.897Z,28.89
2018-06-13T11:29:23.708Z,28.91
2018-06-13T11:31:54.050Z,28.97
2018-06-13T11:34:23.868Z,28.26
2018-06-13T11:36:53.833Z,29.21
2018-06-13T11:39:23.724Z,28.58
2018-06-13T11:41:53.628Z,28.10
2018-06-13T11:44:23.528Z,28.52
2018-06-13T11:46:53.401Z,28.75
2018-06-13T11:49:23.393Z,28.96
2018-06-13T11:51:53.212Z,29.52
2018-06-13T11:54:23.137Z,29.29
2018-06-13T11:56:53.089Z,29.00
2018-06-13T11:59:23.023Z,29.53
2018-06-13T12:01:52.952Z,30.29
2018-06-13T12:04:22.835Z,30.28
2018-06-13T12:06:52.715Z,29.72
2018-06-13T12:09:22.680Z,30.80
2018-06-13T12:11:52.569Z,31.55
2018-06-13T12:14:22.518Z,30.65
2018-06-13T12:16:52.505Z,31.31
2018-06-13T12:19:22.474Z,31.38
2018-06-13T12:21:52.455Z,31.84
2018-06-13T12:24:22.300Z,33.41
2018-06-13T12:26:52.170Z,32.12
2018-06-13T12:29:22.069Z,32.63
2018-06-13T12:31:52.040Z,33.35
2018-06-13T12:34:22.023Z,33.98
2018-06-13T12:36:51.976Z,33.68
2018-06-13T12:39:21.795Z,33.29
2018-06-13T12:41:51.756Z,32.04
2018-06-13T12:44:21.628Z,32.87
2018-06-13T12:46:51.645Z,33.16
2018-06-13T12:49:21.614Z,34.13
2018-06-13T12:51:51.760Z,33.02
2018-06-13T12:54:21.705Z,32.71
2018-06-13T12:56:51.652Z,33.25
2018-06-13T12:59:21.511Z,34.64
2018-06-13T13:01:51.337Z,34.50
2018-06-13T13:04:21.252Z,33.46
2018-06-13T13:06:51.196Z,33.52
2018-06-13T13:09:21.088Z,34.07
2018-06-13T13:11:51.044Z,34.91
2018-06-13T13:14:20.924Z,35.67
2018-06-13T13:16:50.968Z,36.95
2018-06-13T13:19:20.912Z,36.70
2018-06-13T13:21:50.756Z,35.86
2018-06-13T13:24:20.629Z,35.89
2018-06-13T13:26:50.531Z,36.55
2018-06-13T13:29:20.350Z,36.04
2018-06-13T13:31:50.205Z,35.74
2018-06-13T13:34:20.068Z,35.78
2018-06-13T13:36:49.977Z,35.98
2018-06-13T13:39:19.788Z,36.00
2018-06-13T13:41:49.657Z,36.13
2018-06-13T13:44:19.532Z,35.91
2018-06-13T13:46:49.341Z,36.13
2018-06-13T13:49:19.192Z,35.88
2018-06-13T13:51:49.644Z,36.75
2018-06-13T13:54:19.526Z,36.83
2018-06-13T13:56:49.363Z,36.43
2018-06-13T13:59:19.304Z,36.44
2018-06-13T14:01:49.254Z,36.54
2018-06-13T14:04:19.124Z,36.52
2018-06-13T14:06:49.049Z,36.55
2018-06-13T14:09:18.994Z,36.50
2018-06-13T14:11:48.849Z,36.01
2018-06-13T14:14:18.936Z,35.70
2018-06-13T14:16:48.852Z,35.57
2018-06-13T14:19:18.685Z,35.95
2018-06-13T14:21:48.586Z,36.13
2018-06-13T14:24:18.488Z,35.30
2018-06-13T14:26:48.377Z,35.70
2018-06-13T14:29:18.653Z,35.59
2018-06-13T14:31:48.573Z,35.42
2018-06-13T14:34:18.402Z,35.37
2018-06-13T14:36:48.225Z,34.88
2018-06-13T14:39:18.101Z,35.19
2018-06-13T14:41:48.070Z,35.01
2018-06-13T14:44:18.070Z,36.07
2018-06-13T14:46:47.959Z,36.86
2018-06-13T14:49:17.815Z,36.48
2018-06-13T14:51:51.806Z,36.12
2018-06-13T14:54:21.693Z,35.73
2018-06-13T14:56:51.652Z,35.82
2018-06-13T14:59:21.485Z,34.50
2018-06-13T15:01:51.346Z,34.52
2018-06-13T15:04:33.136Z,34.67
2018-06-13T15:07:04.149Z,34.57
2018-06-13T15:09:34.004Z,34.22
2018-06-13T15:12:03.828Z,33.79
2018-06-13T15:14:33.716Z,33.99
2018-06-13T15:17:03.544Z,34.05
2018-06-13T15:19:33.433Z,33.94
2018-06-13T15:22:03.340Z,34.68
2018-06-13T15:24:33.144Z,34.00
2018-06-13T15:27:02.996Z,34.91
2018-06-13T15:29:32.855Z,34.31
2018-06-13T15:32:02.749Z,35.27
2018-06-13T15:34:32.587Z,36.53
2018-06-13T15:37:02.523Z,36.74
2018-06-13T15:39:32.324Z,36.84
2018-06-13T15:42:02.175Z,36.45
2018-06-13T15:44:32.006Z,37.48
2018-06-13T15:47:01.820Z,37.46
2018-06-13T15:49:31.664Z,37.60
2018-06-13T15:52:02.789Z,37.93
2018-06-13T15:54:32.661Z,37.52
2018-06-13T15:57:02.560Z,37.23
2018-06-13T15:59:32.436Z,37.88
2018-06-13T16:02:02.300Z,37.59
2018-06-13T16:04:32.212Z,38.27
2018-06-13T16:07:02.060Z,37.28
2018-06-13T16:09:31.949Z,37.22
2018-06-13T16:12:01.952Z,37.89
2018-06-13T16:14:31.768Z,38.12
2018-06-13T16:17:01.651Z,38.14
2018-06-13T16:19:31.464Z,37.74
2018-06-13T16:22:01.322Z,37.34
2018-06-13T16:24:31.268Z,37.16
2018-06-13T16:27:01.136Z,36.92
2018-06-13T16:29:31.179Z,37.28
2018-06-13T16:32:01.113Z,37.48
2018-06-13T16:34:30.949Z,36.95
2018-06-13T16:37:00.774Z,37.21
2018-06-13T16:39:30.603Z,37.39
2018-06-13T16:42:00.464Z,37.63
2018-06-13T16:44:30.397Z,37.27
2018-06-13T16:47:00.200Z,37.51
2018-06-13T16:49:30.018Z,37.35
2018-06-13T16:52:00.051Z,36.92
2018-06-13T16:54:40.719Z,37.08
2018-06-13T16:57:10.550Z,37.74
2018-06-13T16:59:40.399Z,37.71
2018-06-13T17:02:10.281Z,38.61
2018-06-13T17:04:40.096Z,38.89
2018-06-13T17:07:09.944Z,38.90
2018-06-13T17:09:40.159Z,39.83
2018-06-13T17:12:09.951Z,39.73
2018-06-13T17:14:39.804Z,40.30
2018-06-13T17:17:09.667Z,41.57
2018-06-13T17:19:39.549Z,39.09
2018-06-13T17:22:09.432Z,39.06
2018-06-13T17:24:39.326Z,38.85
2018-06-13T17:27:09.132Z,38.92
2018-06-13T17:29:38.963Z,38.77
2018-06-13T17:32:08.812Z,38.30
2018-06-13T17:34:38.615Z,38.21
2018-06-13T17:37:08.556Z,38.16
2018-06-13T17:39:38.391Z,38.21
2018-06-13T17:42:08.217Z,38.71
2018-06-13T17:44:38.012Z,37.91
2018-06-13T17:47:07.891Z,39.23
2018-06-13T17:49:37.741Z,40.16
2018-06-13T17:52:07.648Z,39.58
2018-06-13T17:54:37.466Z,39.71
2018-06-13T17:57:07.489Z,38.64
2018-06-13T17:59:37.324Z,39.79
2018-06-13T18:02:07.257Z,37.21
2018-06-13T18:04:37.101Z,37.19
2018-06-13T18:07:06.985Z,36.96
2018-06-13T18:09:36.824Z,37.45
2018-06-13T18:12:06.733Z,37.85
2018-06-13T18:14:36.547Z,37.63
2018-06-13T18:17:06.394Z,37.37
2018-06-13T18:19:36.233Z,37.59
2018-06-13T18:22:06.108Z,37.40
2018-06-13T18:24:35.905Z,38.21
2018-06-13T18:27:05.928Z,39.86
2018-06-13T18:29:35.796Z,40.33
2018-06-13T18:32:05.707Z,41.22
2018-06-13T18:34:35.668Z,40.79
2018-06-13T18:37:05.531Z,41.55
2018-06-13T18:39:35.399Z,42.22
2018-06-13T18:42:05.254Z,41.38
2018-06-13T18:44:35.087Z,40.41
2018-06-13T18:47:04.977Z,39.88
2018-06-13T18:49:34.796Z,39.80
2018-06-13T18:52:04.753Z,38.47
2018-06-13T18:54:34.693Z,38.82
2018-06-13T18:57:04.602Z,38.40
2018-06-13T18:59:34.447Z,37.83
2018-06-13T19:02:04.300Z,37.58
2018-06-13T19:04:34.165Z,36.88
2018-06-13T19:07:04.040Z,36.61
2018-06-13T19:09:33.892Z,37.36
2018-06-13T19:12:03.788Z,36.80
2018-06-13T19:14:33.565Z,37.50
2018-06-13T19:17:03.389Z,37.04
2018-06-13T19:19:33.276Z,37.45
2018-06-13T19:22:03.112Z,37.78
2018-06-13T19:24:32.921Z,37.17
2018-06-13T19:27:02.808Z,37.27
2018-06-13T19:29:32.607Z,37.16
2018-06-13T19:32:02.472Z,37.08
2018-06-13T19:34:32.268Z,37.00
2018-06-13T19:37:02.134Z,37.23
2018-06-13T19:39:31.955Z,37.50
2018-06-13T19:42:01.773Z,37.77
2018-06-13T19:44:31.589Z,37.81
2018-06-13T19:47:06.409Z,37.86
2018-06-13T19:49:36.236Z,37.93
2018-06-13T19:52:06.104Z,37.68
2018-06-13T19:54:40.928Z,37.43
2018-06-13T19:57:10.748Z,37.04
2018-06-13T19:59:40.621Z,36.49
2018-06-13T20:02:10.401Z,36.72
2018-06-13T20:04:45.327Z,38.05
2018-06-13T20:07:15.168Z,39.06
2018-06-13T20:09:45.014Z,39.10
2018-06-13T20:12:30.861Z,39.58
2018-06-13T20:15:05.861Z,39.07
2018-06-13T20:17:40.641Z,38.92
2018-06-13T20:20:10.484Z,37.40
2018-06-13T20:22:40.350Z,36.71
2018-06-13T20:25:15.172Z,37.20
2018-06-13T20:27:50.019Z,37.90
2018-06-13T20:30:24.948Z,38.53
2018-06-13T20:32:54.808Z,37.58
2018-06-13T20:35:24.611Z,37.43
2018-06-13T20:37:54.444Z,37.46
2018-06-13T20:40:24.324Z,36.94
2018-06-13T20:42:54.214Z,37.06
2018-06-13T20:45:24.031Z,37.37
2018-06-13T20:47:53.865Z,37.80
2018-06-13T20:50:23.672Z,37.24
2018-06-13T20:52:53.517Z,37.28
2018-06-13T20:55:23.317Z,36.53
2018-06-13T20:57:53.508Z,36.97
2018-06-13T21:00:23.348Z,36.73
2018-06-13T21:02:53.203Z,37.04
2018-06-13T21:05:23.024Z,37.06
2018-06-13T21:07:52.892Z,37.04
2018-06-13T21:10:22.717Z,37.15
2018-06-13T21:12:52.570Z,36.70
2018-06-13T21:15:22.435Z,36.54
2018-06-13T21:17:52.637Z,37.20
2018-06-13T21:20:22.530Z,37.35
2018-06-13T21:22:52.344Z,37.39
2018-06-13T21:25:22.221Z,38.07
2018-06-13T21:27:52.056Z,38.05
2018-06-13T21:30:21.932Z,39.08
2018-06-13T21:32:51.808Z,38.19
2018-06-13T21:35:21.608Z,38.58
2018-06-13T21:37:51.443Z,38.80
2018-06-13T21:40:21.301Z,39.46
2018-06-13T21:42:51.183Z,39.69
2018-06-13T21:45:21.084Z,39.41
2018-06-13T21:47:50.928Z,39.33
2018-06-13T21:50:20.796Z,40.17
2018-06-13T21:52:50.593Z,40.16
2018-06-13T21:55:20.420Z,39.73
2018-06-13T21:57:50.228Z,39.79
2018-06-13T22:00:20.100Z,39.97
2018-06-13T22:02:49.984Z,39.38
2018-06-13T22:05:19.872Z,39.92
2018-06-13T22:07:49.796Z,39.34
2018-06-13T22:10:19.570Z,39.62
2018-06-13T22:12:49.467Z,39.61
2018-06-13T22:15:25.030Z,40.25
2018-06-13T22:17:57.489Z,40.40
2018-06-13T22:20:27.760Z,40.40
2018-06-13T22:22:57.637Z,40.92
2018-06-13T22:25:27.424Z,41.25
2018-06-13T22:27:57.239Z,41.74
2018-06-13T22:30:27.106Z,42.05
2018-06-13T22:32:56.892Z,41.94
2018-06-13T22:35:26.767Z,41.78
2018-06-13T22:37:56.609Z,41.45
2018-06-13T22:40:26.433Z,42.02
2018-06-13T22:42:56.270Z,41.46
2018-06-13T22:45:26.120Z,41.91
2018-06-13T22:47:55.996Z,41.90
2018-06-13T22:50:25.908Z,41.78
2018-06-13T22:52:55.732Z,42.05
2018-06-13T22:55:25.531Z,41.99
2018-06-13T22:57:55.351Z,41.92
2018-06-13T23:00:33.100Z,42.15
2018-06-13T23:03:02.652Z,42.95
2018-06-13T23:05:32.464Z,42.33
2018-06-13T23:08:02.283Z,42.63
2018-06-13T23:10:32.112Z,42.17
2018-06-13T23:13:01.949Z,42.47
2018-06-13T23:15:31.774Z,42.01
2018-06-13T23:18:01.600Z,41.49
2018-06-13T23:20:31.388Z,41.50
2018-06-13T23:23:01.228Z,41.99
2018-06-13T23:25:31.105Z,42.29
2018-06-13T23:28:00.930Z,42.74
2018-06-13T23:30:30.764Z,43.40
2018-06-13T23:33:00.575Z,43.89
2018-06-13T23:35:30.669Z,43.18
2018-06-13T23:38:00.484Z,43.37
2018-06-13T23:40:30.325Z,44.32
2018-06-13T23:43:00.119Z,44.64
2018-06-13T23:45:30.018Z,44.15
2018-06-13T23:47:59.860Z,43.81
2018-06-13T23:50:29.696Z,44.20
2018-06-13T23:52:59.510Z,45.19
2018-06-13T23:55:29.446Z,45.47
2018-06-13T23:57:59.240Z,45.01
